Latest Weather Observations for Flinders Island Airport

IDT60801

Issued at 3:01 am EDT Monday 18 November 2019 (issued every 10 minutes, with the page automatically refreshed every 10 minutes)

About weather observations | Map of weather stations | Latest weather observations for TAS | Other Formats
Station Details ID: 099005 Name: FLINDERS ISLAND AIRPORT Lat: -40.09 Lon: 148.00 Height: 9.0 m
Data from the previous 72 hours. | See also: Recent months at Flinders Island Airport
Date/Time
EDT
Temp
°C
App
Temp
°C
Dew
Point
°C
Rel
Hum
%
Delta-T
°C
Wind Press
QNH
hPa
Press
MSL
hPa
Rain since
9am
mm
Dir  Spd
km/h
Gust
km/h
Spd
kts
Gust
kts
18/03:00am 11.9 5.0 6.4 69 2.6 WNW 32 41 17 22 1014.9 1014.9 0.0
18/02:30am 11.8 4.9 6.3 69 2.6 W 32 41 17 22 1015.4 1015.4 0.0
18/02:00am 11.6 4.6 5.9 68 2.7 WNW 32 41 17 22 1015.6 1015.6 0.0
18/01:30am 11.5 4.5 6.2 70 2.5 W 32 41 17 22 1015.8 1015.8 0.0
18/01:00am 11.5 4.9 6.2 70 2.5 W 30 37 16 20 1016.6 1016.6 0.0
18/12:30am 11.7 5.3 6.8 72 2.3 W 30 41 16 22 1017.0 1017.0 0.0
18/12:00am 11.5 4.4 6.6 72 2.3 WNW 33 41 18 22 1017.0 1017.0 0.0
 
Date/Time
EDT
Temp
°C
App
Temp
°C
Dew
Point
°C
Rel
Hum
%
Delta-T
°C
Wind Press
QNH
hPa
Press
MSL
hPa
Rain since
9am
mm
Dir  Spd
km/h
Gust
km/h
Spd
kts
Gust
kts
17/11:30pm 11.7 5.0 7.2 74 2.2 W 32 39 17 21 1017.2 1017.2 0.0
17/11:00pm 11.6 4.8 6.9 73 2.2 WNW 32 41 17 22 1017.2 1017.2 0.0
17/10:30pm 11.7 5.3 7.0 73 2.2 W 30 43 16 23 1017.8 1017.8 0.0
17/10:00pm 11.8 5.0 6.9 72 2.3 W 32 39 17 21 1017.5 1017.5 0.0
17/09:30pm 11.9 4.6 7.4 74 2.2 W 35 46 19 25 1017.6 1017.6 0.0
17/09:00pm 12.0 4.2 6.5 69 2.6 W 37 46 20 25 1017.7 1017.7 0.0
17/08:30pm 12.0 4.3 7.1 72 2.4 W 37 50 20 27 1017.5 1017.5 0.0
17/08:00pm 12.1 4.0 6.8 70 2.5 W 39 48 21 26 1017.5 1017.5 0.0
17/07:30pm 12.5 4.4 7.0 69 2.6 W 39 50 21 27 1017.3 1017.3 0.0
17/07:00pm 13.1 5.0 6.9 66 3.0 W 39 50 21 27 1017.0 1017.0 0.0
17/06:30pm 13.2 4.6 6.5 64 3.2 W 41 50 22 27 1016.8 1016.8 0.0
17/06:00pm 13.7 6.4 7.2 65 3.2 W 35 48 19 26 1016.9 1016.9 0.0
17/05:30pm 13.8 5.2 6.4 61 3.5 W 41 54 22 29 1016.7 1016.7 0.0
17/05:00pm 14.1 6.4 6.9 62 3.5 W 37 48 20 26 1016.9 1016.9 0.0
17/04:30pm 14.3 5.8 7.1 62 3.5 W 41 48 22 26 1016.5 1016.5 0.0
17/04:00pm 14.2 6.5 7.0 62 3.5 W 37 46 20 25 1016.7 1016.7 0.0
17/03:30pm 14.6 6.5 6.9 60 3.8 W 39 48 21 26 1016.8 1016.8 0.0
17/03:00pm 14.4 6.1 6.3 58 3.9 W 39 48 21 26 1017.3 1017.3 0.0
17/02:30pm 14.4 6.2 6.5 59 3.8 W 39 48 21 26 1017.3 1017.3 0.0
17/02:00pm 13.4 5.9 6.3 62 3.4 WSW 35 44 19 24 1017.5 1017.5 0.0
17/01:30pm 14.0 6.0 5.6 57 4.0 WSW 37 48 20 26 1017.5 1017.5 0.0
17/01:00pm 14.1 6.2 6.2 59 3.8 WSW 37 46 20 25 1017.8 1017.8 0.0
17/12:30pm 14.1 6.7 6.9 62 3.5 WSW 35 41 19 22 1017.6 1017.6 0.0
17/12:00pm 14.1 6.0 7.2 63 3.4 WSW 39 46 21 25 1017.8 1017.8 0.0
17/11:30am 13.8 6.4 6.7 62 3.4 WSW 35 43 19 23 1018.0 1017.9 0.0
17/11:00am 13.8 5.4 5.7 58 3.8 WSW 39 50 21 27 1017.7 1017.7 0.0
17/10:30am 13.4 6.0 6.7 64 3.2 WSW 35 44 19 24 1017.4 1017.4 0.0
17/10:00am 12.8 5.3 6.2 64 3.1 WSW 35 41 19 22 1017.1 1017.1 0.0
17/09:30am 12.7 4.7 5.6 62 3.3 WSW 37 48 20 26 1016.9 1016.9 0.0
17/09:00am 12.8 4.4 5.7 62 3.3 WSW 39 48 21 26 1017.0 1017.0 0.0
17/08:30am 12.4 4.3 5.3 62 3.3 WSW 37 44 20 24 1016.6 1016.6 0.0
17/08:00am 11.8 2.4 5.4 65 3.0 WSW 44 52 24 28 1016.2 1016.2 0.0
17/07:30am 11.2 2.3 5.1 66 2.8 WSW 41 48 22 26 1016.0 1016.0 0.0
17/07:00am 11.2 3.1 5.1 66 2.8 WSW 37 46 20 25 1015.6 1015.6 0.0
17/06:30am 10.8 0.9 4.7 66 2.8 WSW 46 59 25 32 1015.2 1015.2 0.0
17/06:00am 10.8 1.4 5.3 69 2.5 WSW 44 56 24 30 1014.9 1014.9 0.0
17/05:30am 11.0 1.1 4.7 65 2.8 WSW 46 57 25 31 1014.8 1014.8 0.0
17/05:00am 11.1 1.3 5.4 68 2.6 WSW 46 56 25 30 1014.7 1014.7 0.0
17/04:30am 11.2 1.1 5.5 68 2.6 WSW 48 61 26 33 1014.3 1014.3 0.0
17/04:00am 11.4 1.9 4.8 64 3.0 WSW 44 56 24 30 1014.1 1014.1 0.0
17/03:30am 11.7 2.8 6.8 72 2.3 WSW 43 52 23 28 1014.1 1014.1 0.0
17/03:00am 11.7 2.1 6.4 70 2.5 WSW 46 56 25 30 1014.0 1014.0 0.0
17/02:30am 11.7 3.1 6.6 71 2.4 WSW 41 54 22 29 1013.9 1013.9 0.0
17/02:00am 11.8 2.6 6.3 69 2.6 W 44 56 24 30 1013.8 1013.8 0.0
17/01:30am 11.5 3.1 7.2 75 2.1 W 41 50 22 27 1014.1 1014.1 0.0
17/01:00am 11.6 2.2 7.1 74 2.2 W 46 57 25 31 1014.2 1014.2 0.0
17/12:30am 11.8 2.2 6.3 69 2.6 WSW 46 57 25 31 1014.1 1014.1 0.0
17/12:00am 12.0 2.7 7.5 74 2.2 W 46 59 25 32 1014.2 1014.2 0.0
 
Date/Time
EDT
Temp
°C
App
Temp
°C
Dew
Point
°C
Rel
Hum
%
Delta-T
°C
Wind Press
QNH
hPa
Press
MSL
hPa
Rain since
9am
mm
Dir  Spd
km/h
Gust
km/h
Spd
kts
Gust
kts
16/11:30pm 11.9 0.8 6.4 69 2.6 W 54 63 29 34 1014.0 1014.0 0.0
16/11:00pm 11.9 0.8 6.2 68 2.7 W 54 63 29 34 1014.2 1014.2 0.0
16/10:30pm 11.9 1.7 6.8 71 2.4 W 50 65 27 35 1014.2 1014.2 0.0
16/10:00pm 11.8 1.2 7.1 73 2.3 W 52 67 28 36 1014.2 1014.2 0.0
16/09:30pm 12.3 1.9 6.1 66 2.9 W 50 63 27 34 1014.2 1014.2 0.0
16/09:00pm 12.2 2.0 6.9 70 2.5 W 50 61 27 33 1014.2 1014.2 0.0
16/08:30pm 12.0 2.2 6.9 71 2.4 W 48 59 26 32 1014.0 1014.0 0.0
16/08:00pm 12.2 3.1 6.9 70 2.5 W 44 59 24 32 1014.0 1014.0 0.0
16/07:30pm 12.6 3.0 6.4 66 2.9 W 46 63 25 34 1013.9 1013.9 0.0
16/07:17pm 12.6 2.7 6.4 66 2.9 W 48 67 26 36 1013.9 1013.9 0.0
16/07:00pm 12.8 2.9 6.4 65 3.0 W 48 61 26 33 1013.6 1013.6 0.0
16/06:44pm 13.1 3.5 6.2 63 3.3 W 46 65 25 35 1013.4 1013.4 0.0
16/06:30pm 13.0 3.0 6.1 63 3.3 W 48 61 26 33 1013.1 1013.1 0.0
16/06:11pm 13.0 2.5 5.7 61 3.4 W 50 69 27 37 1013.1 1013.1 0.0
16/06:00pm 13.0 2.6 5.9 62 3.3 W 50 61 27 33 1013.1 1013.1 0.0
16/05:30pm 13.2 1.8 5.1 58 3.8 W 54 72 29 39 1013.0 1013.0 0.0
16/05:28pm 13.2 1.9 5.4 59 3.6 W 54 72 29 39 1013.0 1013.0 0.0
16/05:00pm 13.4 3.0 6.0 61 3.5 W 50 67 27 36 1012.9 1012.9 0.0
16/04:30pm 14.3 4.2 5.9 57 4.0 W 48 59 26 32 1012.5 1012.5 0.0
16/04:17pm 14.3 4.0 6.4 59 3.8 W 50 69 27 37 1012.5 1012.5 0.0
16/04:00pm 14.5 3.2 5.3 54 4.3 W 54 69 29 37 1012.4 1012.4 0.0
16/03:43pm 14.3 4.7 6.2 58 3.9 W 46 65 25 35 1012.5 1012.5 0.0
16/03:30pm 14.7 3.2 7.0 60 3.8 W 57 69 31 37 1012.7 1012.7 0.0
16/03:00pm 13.7 4.4 7.7 67 3.0 W 46 67 25 36 1012.8 1012.8 0.0
16/02:30pm 14.8 5.2 6.4 57 4.1 W 46 65 25 35 1012.7 1012.7 0.0
16/02:00pm 15.0 4.2 6.0 55 4.3 W 52 65 28 35 1013.0 1013.0 0.0
16/01:40pm 15.1 5.4 5.9 54 4.4 W 46 65 25 35 1013.0 1013.0 0.0
16/01:30pm 14.9 5.2 6.0 55 4.3 W 46 57 25 31 1012.8 1012.8 0.0
16/01:00pm 14.6 3.7 5.7 55 4.2 W 52 63 28 34 1013.1 1013.1 0.0
16/12:30pm 14.6 5.0 6.4 58 4.0 W 46 57 25 31 1013.2 1013.2 0.0
16/12:00pm 14.4 3.9 5.5 55 4.2 W 50 65 27 35 1013.1 1013.1 0.0
16/11:30am 13.6 3.4 6.9 64 3.2 W 50 59 27 32 1013.1 1013.1 0.0
16/11:00am 14.2 4.4 7.0 62 3.5 W 48 59 26 32 1013.0 1013.0 0.0
16/10:31am 12.6 3.8 7.3 70 2.6 W 43 54 23 29 1013.1 1013.1 0.0
16/10:30am 12.5 4.1 7.2 70 2.6 W 41 54 22 29 1013.1 1013.1 0.0
16/10:18am 11.7 2.1 9.6 87 1.1 W 50 63 27 34 1013.2 1013.2 0.0
16/10:00am 13.8 4.6 6.4 61 3.5 W 44 56 24 30 1012.9 1012.9 0.0
16/09:30am 13.2 4.1 5.9 61 3.4 W 43 57 23 31 1012.9 1012.9 0.0
16/09:00am 12.5 3.8 6.1 65 3.0 W 41 56 22 30 1013.1 1013.1 0.2
16/08:30am 12.9 3.5 5.6 61 3.4 W 44 56 24 30 1012.8 1012.8 0.2
16/08:00am 12.3 3.0 5.7 64 3.1 W 44 54 24 29 1012.7 1012.7 0.2
16/07:30am 11.8 2.4 5.4 65 3.0 WSW 44 59 24 32 1012.4 1012.4 0.2
16/07:00am 11.1 -0.1 4.1 62 3.1 W 52 61 28 33 1012.2 1012.2 0.2
16/06:30am 11.1 0.4 4.6 64 2.9 W 50 59 27 32 1011.5 1011.5 0.2
16/06:00am 10.9 0.2 4.8 66 2.8 WSW 50 61 27 33 1011.3 1011.3 0.2
16/05:30am 11.1 0.9 5.0 66 2.8 W 48 59 26 32 1011.0 1011.0 0.2
16/05:00am 11.1 0.9 5.4 68 2.6 WSW 48 57 26 31 1010.7 1010.7 0.2
16/04:30am 11.3 0.0 5.2 66 2.8 WSW 54 69 29 37 1010.5 1010.5 0.2
16/04:00am 11.2 1.1 5.7 69 2.5 WSW 48 59 26 32 1010.4 1010.4 0.2
16/03:30am 11.1 -0.3 4.8 65 2.9 W 54 65 29 35 1010.3 1010.3 0.2
16/03:00am 11.3 0.4 5.6 68 2.6 WSW 52 61 28 33 1010.3 1010.3 0.2
16/02:30am 11.3 -0.2 4.5 63 3.1 W 54 65 29 35 1010.3 1010.3 0.2
16/02:00am 11.5 0.7 5.8 68 2.7 W 52 63 28 34 1010.2 1010.2 0.2
16/01:30am 11.5 1.4 5.8 68 2.6 W 48 59 26 32 1010.3 1010.3 0.2
16/01:00am 11.6 1.2 5.9 68 2.7 W 50 69 27 37 1010.4 1010.4 0.2
16/12:58am 11.7 1.2 5.8 67 2.7 W 50 69 27 37 1010.3 1010.3 0.2
16/12:30am 11.8 0.1 5.4 65 3.0 WSW 56 69 30 37 1010.3 1010.3 0.2
16/12:00am 11.7 0.2 4.2 60 3.4 W 54 65 29 35 1010.0 1010.0 0.2
 
Date/Time
EDT
Temp
°C
App
Temp
°C
Dew
Point
°C
Rel
Hum
%
Delta-T
°C
Wind Press
QNH
hPa
Press
MSL
hPa
Rain since
9am
mm
Dir  Spd
km/h
Gust
km/h
Spd
kts
Gust
kts
15/11:30pm 11.7 1.0 6.6 71 2.4 W 52 63 28 34 1010.0 1010.0 0.2
15/11:00pm 11.6 1.7 6.5 71 2.4 W 48 63 26 34 1010.1 1010.1 0.2
15/10:30pm 11.9 1.1 6.0 67 2.8 W 52 65 28 35 1009.9 1009.9 0.2
15/10:00pm 11.8 1.1 6.3 69 2.6 W 52 63 28 34 1009.7 1009.7 0.2
15/09:30pm 12.1 1.2 7.2 72 2.4 W 54 65 29 35 1009.1 1009.1 0.2
15/09:00pm 12.1 1.1 6.6 69 2.6 W 54 67 29 36 1008.9 1008.9 0.2
15/08:30pm 12.1 1.0 6.2 67 2.8 W 54 72 29 39 1008.4 1008.4 0.2
15/08:22pm 12.2 1.5 6.5 68 2.7 W 52 72 28 39 1008.3 1008.3 0.2
15/08:00pm 12.3 1.9 6.1 66 2.9 W 50 63 27 34 1007.8 1007.8 0.2
15/07:30pm 12.7 0.8 5.1 60 3.5 W 57 70 31 38 1007.3 1007.3 0.2
15/07:00pm 13.1 1.1 6.5 64 3.2 W 59 72 32 39 1006.8 1006.8 0.2
15/06:30pm 13.5 2.7 7.7 68 2.9 W 54 69 29 37 1006.3 1006.3 0.2
15/06:00pm 13.7 2.2 7.2 65 3.2 W 57 70 31 38 1005.8 1005.8 0.2
15/05:38pm 14.3 3.0 7.1 62 3.5 W 56 74 30 40 1005.8 1005.8 0.2
15/05:30pm 13.9 2.2 6.3 60 3.6 W 57 74 31 40 1005.6 1005.6 0.2
15/05:00pm 14.2 3.2 7.0 62 3.5 W 54 72 29 39 1005.1 1005.1 0.2
15/04:56pm 14.3 4.1 6.9 61 3.6 W 50 69 27 37 1005.1 1005.1 0.2
15/04:30pm 13.0 2.8 8.7 75 2.2 W 52 67 28 36 1004.9 1004.9 0.2
15/04:00pm 14.7 4.7 8.0 64 3.4 W 50 70 27 38 1004.7 1004.7 0.2
15/03:44pm 14.6 4.7 8.1 65 3.2 W 50 69 27 37 1004.6 1004.6 0.2
15/03:30pm 14.6 4.9 9.0 69 2.9 W 50 65 27 35 1004.6 1004.6 0.2
15/03:02pm 15.0 5.4 7.8 62 3.6 W 48 69 26 37 1004.4 1004.4 0.2
15/03:00pm 15.0 5.4 7.8 62 3.6 W 48 65 26 35 1004.4 1004.4 0.2
15/02:31pm 13.8 4.7 10.0 78 2.0 W 48 67 26 36 1004.3 1004.3 0.2
15/02:30pm 13.3 3.7 9.4 77 2.0 W 50 67 27 36 1004.3 1004.3 0.2
15/02:17pm 13.9 4.8 8.3 69 2.8 W 46 69 25 37 1004.2 1004.2 0.2
15/02:00pm 14.2 4.6 7.9 66 3.1 W 48 61 26 33 1004.3 1004.3 0.2
15/01:30pm 14.8 5.3 8.3 65 3.3 W 48 57 26 31 1004.1 1004.1 0.2
15/01:00pm 15.0 5.8 9.6 70 2.8 W 48 59 26 32 1004.0 1004.0 0.2
15/12:39pm 13.4 2.9 8.9 74 2.3 W 54 69 29 37 1004.1 1004.1 0.2
15/12:30pm 13.6 3.5 8.9 73 2.4 W 52 65 28 35 1004.1 1004.1 0.2
15/12:06pm 14.6 5.6 10.2 75 2.3 W 48 59 26 32 1004.1 1004.1 0.2
15/12:00pm 14.7 5.6 9.9 73 2.5 W 48 61 26 33 1004.1 1004.1 0.2
15/11:30am 14.3 4.9 10.1 76 2.2 W 50 63 27 34 1004.1 1004.1 0.2
15/11:27am 14.0 4.5 9.8 76 2.2 W 50 63 27 34 1004.0 1004.0 0.2
15/11:05am 14.0 5.3 12.7 92 0.7 W 50 63 27 34 1004.1 1004.1 0.2
15/11:00am 13.6 4.0 12.2 91 0.8 W 54 67 29 36 1004.1 1004.1 0.2
15/10:48am 13.0 4.4 11.6 91 0.7 W 48 57 26 31 1004.0 1004.0 0.2
15/10:36am 13.8 4.9 10.6 81 1.7 W 48 65 26 35 1004.0 1004.0 0.0
15/10:34am 13.8 5.2 10.2 79 1.9 W 46 65 25 35 1004.0 1004.0 0.0
15/10:30am 14.3 6.0 10.1 76 2.2 W 44 59 24 32 1004.0 1004.0 0.0
15/10:00am 13.9 5.7 10.5 80 1.8 W 44 56 24 30 1004.2 1004.2 0.0
15/09:48am 14.2 6.4 11.0 81 1.7 W 43 54 23 29 1004.3 1004.3 0.0
15/09:30am 14.3 6.0 11.5 83 1.5 W 46 57 25 31 1004.3 1004.3 0.0
15/09:20am 14.3 6.1 10.5 78 2.0 W 44 61 24 33 1004.5 1004.5 0.0
15/09:10am 13.9 5.6 10.1 78 2.0 WNW 44 57 24 31 1004.5 1004.5 0.0
15/09:00am 13.5 5.7 9.9 79 1.9 W 41 52 22 28 1004.7 1004.7 0.8
15/08:30am 13.5 6.3 10.5 82 1.6 WNW 39 56 21 30 1004.3 1004.3 0.8
15/08:00am 13.3 5.8 11.0 86 1.2 WNW 41 56 22 30 1004.4 1004.4 0.8
15/07:51am 13.1 5.2 10.8 86 1.2 WNW 43 57 23 31 1004.4 1004.4 0.8
15/07:30am 12.9 5.7 10.6 86 1.2 W 39 57 21 31 1004.5 1004.5 0.8
15/07:29am 12.8 5.6 10.5 86 1.2 W 39 57 21 31 1004.5 1004.5 0.8
15/07:00am 12.9 5.4 10.8 87 1.1 WNW 41 56 22 30 1004.4 1004.4 0.8
15/06:39am 12.6 5.1 10.8 89 0.9 WNW 41 54 22 29 1004.3 1004.3 0.8
15/06:30am 12.6 4.5 10.7 88 1.0 WNW 44 61 24 33 1004.2 1004.2 0.8
15/06:22am 12.8 4.3 10.7 87 1.1 WNW 46 61 25 33 1004.2 1004.2 0.8
15/06:16am 12.7 4.6 10.6 87 1.1 WNW 44 63 24 34 1004.1 1004.1 0.8
15/06:11am 12.7 4.7 10.6 87 1.1 WNW 43 63 23 34 1004.1 1004.1 0.8
15/06:03am 12.5 4.6 10.7 89 0.9 WNW 43 59 23 32 1004.0 1004.0 0.8
15/06:00am 12.5 4.4 10.7 89 0.9 WNW 44 59 24 32 1004.0 1004.0 0.8
15/05:49am 12.2 4.7 10.9 92 0.7 WNW 41 59 22 32 1003.9 1003.9 0.8
15/05:42am 12.1 5.2 11.5 96 0.3 WNW 39 50 21 27 1004.0 1004.0 0.8
15/05:39am 12.1 5.2 11.5 96 0.3 WNW 39 50 21 27 1004.0 1004.0 0.8
15/05:34am 11.9 5.4 11.6 98 0.2 WNW 37 48 20 26 1003.9 1003.9 0.8
15/05:30am 11.9 4.9 11.4 97 0.3 W 39 52 21 28 1003.8 1003.8 0.8
15/05:22am 12.2 4.1 10.9 92 0.7 W 44 56 24 30 1003.9 1003.9 0.8
15/05:20am 12.4 4.3 10.6 89 0.9 WNW 44 56 24 30 1003.9 1003.9 0.4
15/05:00am 12.3 3.8 10.5 89 0.9 WNW 46 59 25 32 1003.9 1003.9 0.4
15/04:30am 12.7 4.6 10.2 85 1.3 WNW 43 61 23 33 1003.9 1003.9 0.4
15/04:20am 12.7 4.4 10.2 85 1.3 WNW 44 67 24 36 1004.0 1004.0 0.4
15/04:00am 12.7 4.7 10.4 86 1.2 WNW 43 54 23 29 1003.9 1003.9 0.4
15/03:43am 12.5 4.5 10.4 87 1.1 WNW 43 61 23 33 1004.1 1004.1 0.4
15/03:30am 12.4 3.8 10.3 87 1.1 WNW 46 61 25 33 1004.0 1004.0 0.4
15/03:10am 12.1 5.2 11.5 96 0.3 WNW 39 52 21 28 1004.2 1004.2 0.4
15/03:05am 11.9 4.2 11.4 97 0.3 WNW 43 54 23 29 1004.1 1004.1 0.4

Other formats

Comma delimited format used in spreadsheet applications
http://www.bom.gov.au/fwo/IDT60801/IDT60801.94980.axf

JavaScript Object Notation format (JSON) in row-major order
http://www.bom.gov.au/fwo/IDT60801/IDT60801.94980.json

Data quality

Most of these data are generated automatically and are frequently updated. Quality checks on data are not normally performed. It is possible for incorrect values to appear. Refer to information at About Latest Weather Observations and please check the disclaimer before using these data.